Rosedale, VA (24280)

4:44 PM EST on December 09, 2016 (GMT -0500)
Tazewell County | | Change Station

Elev 2651 ft 37.06 °N, 81.80 °W | Updated 9 minutes ago

Partly Cloudy
Partly Cloudy
21 °F
Feels Like 21 °F
N
0
Wind Variable Wind from North

Today
High -- | Low -- °F
--% Chance of Precip.
Yesterday
High -- | Low -- °F
Precip. -- in
Pressure 30.38 in
Visibility 10.0 miles
Clouds Scattered Clouds 2400 ft
Dew Point 12 °F
Humidity 69%
Rainfall 0.00 in
Snow Depth Not available.
7:29 AM 5:11 PM
Waxing Gibbous, 77% visible
METAR KJFZ 092135Z AUTO 00000KT 10SM SCT024 M06/M11 A3038 RMK AO2 T10621111
Pressure 30.38 in
Visibility 10.0 miles
Clouds Scattered Clouds 2400 ft
Dew Point 12 °F
Humidity 69%
Rainfall 0.00 in
Snow Depth Not available.
7:29 AM 5:11 PM
Waxing Gibbous, 77% visible
METAR KJFZ 092135Z AUTO 00000KT 10SM SCT024 M06/M11 A3038 RMK AO2 T10621111

10-Day Weather Forecast

Almanac

Astronomy

Dec. 09, 2016 Rise Set
Actual Time
Civil Twilight
Nautical Twilight
Astronomical Twilight
Moon
Length of Visible Light
Length of Day
Tomorrow will be .
, % of the Moon is Illuminated

Today's Extremes

State Highs State Lows

Community

WunderPhotos

Upload Photos

1,956,517 photos uploaded!

WunderBlog® & News

Nearby

Air Quality

  Air Quality AQ Index Pollutant
Not available.

Snow Depth

Station Depth Elevation

Earthquake Activity

City Distance Mag. Time & Date
Minimum magnitude displayed is 2.5.

Coastal Water Temperatures

Place Temperature

Stations

Nearby Weather Stations

Station Location Temp. Windchill Dew Point Humidity Wind Precip. Elev Updated Type
                   

Watches & Warnings

There are currently no watches in effect.